• Join FlightAware (Why Join?)
  • Login
  • US Flag 
10:30AM EDT


 

Airport Tracker/Info


-or-


 

Live Flight TrackerFlight Track Log ✈ C-GGPH ✈ 01-May-2012 ✈ KVNC - KEYW

Flight Track Log - Related Links

Times and Time Zones

All times are in EDT time to prevent confusion due to time zone crossing. See the C-GGPH flight status page for this flight to view local times or setup timezone preferences in your user account.

Time Position Orientation Groundspeed Altitude Reporting Facility
EDT Latitude Longitude Course Direction KTS MPH feet Rate Location/Type
05:36PM 27.0667 -82.4333 90° East 75 86 600  Level Tampa TRACON
05:36PM 27.0667 -82.4167 42° Northeast 71 82 900 600 Climbing Tampa TRACON
05:37PM 27.0833 -82.4000 90° East 78 90 1,500 540 Climbing Tampa TRACON
05:38PM 27.0833 -82.3667 167° South 77 89 2,000 240 Climbing Tampa TRACON
06:09PM 26.0511 -82.0986 175° South 145 167 9,300 180 Climbing Miami Center
06:10PM 26.0097 -82.0944 172° South 145 167 9,300 -60 Level Miami Center
06:11PM 25.9703 -82.0881 165° South 145 167 9,200 -120 Descending Miami Center
06:12PM 25.9269 -82.0747 172° South 144 166 9,100 -60 Descending Miami Center
06:13PM 25.8875 -82.0683 166° South 149 171 9,100  Level Miami Center
06:14PM 25.8481 -82.0575 169° South 149 171 9,100  Level Miami Center
06:15PM 25.8086 -82.0489 175° South 144 166 9,100  Level Miami Center
06:16PM 25.7672 -82.0447 165° South 144 166 9,200  Climbing Miami Center
06:17PM 25.7300 -82.0339 169° South 144 166 9,200  Level Miami Center
06:18PM 25.6906 -82.0253 150° Southeast 144 166 9,300 -60 Climbing Miami Center
06:19PM 25.6558 -82.0031 139° Southeast 144 166 9,100 -180 Descending Miami Center
06:20PM 25.6256 -81.9742 164° South 144 166 9,000 -240 Descending Miami Center
06:21PM 25.5842 -81.9608 167° South 144 166 8,700 -360 Descending Miami Center
06:22PM 25.5408 -81.9500 165° South 155 178 8,300 -480 Descending Miami Center
06:23PM 25.4953 -81.9364 164° South 161 185 7,800 -420 Descending Miami Center
06:24PM 25.4519 -81.9231 167° South 161 185 7,500 -360 Descending Miami Center
06:25PM 25.4083 -81.9122 167° South 161 185 7,100 -360 Descending Miami Center
06:26PM 25.3650 -81.9011 169° South 161 185 6,800 -300 Descending Miami Center
06:27PM 25.3236 -81.8925 170° South 161 185 6,600 -300 Descending Miami Center
06:28PM 25.2800 -81.8839 175° South 161 185 6,200 -420 Descending Miami Center
06:29PM 25.2383 -81.8797 170° South 161 185 5,800 -420 Descending Miami Center
06:30PM 25.1947 -81.8711 172° South 161 185 5,400 -300 Descending Miami Center
06:31PM 25.1553 -81.8650 175° South 156 180 5,200 -240 Descending Miami Center
06:32PM 25.1117 -81.8608 172° South 156 180 5,000 -300 Descending Miami Center
06:33PM 25.0700 -81.8544 175° South 156 180 4,600 -480 Descending Miami Center
06:34PM 25.0283 -81.8506 175° South 156 180 4,100 -360 Descending Miami Center
06:35PM 24.9869 -81.8467 172° South 156 180 3,900 -240 Descending Miami Center
06:36PM 24.9472 -81.8406 174° South 156 180 3,700 -300 Descending Miami Center
06:37PM 24.9119 -81.8367 175° South 146 168 3,400 -300 Descending Miami Center
06:38PM 24.8744 -81.8328 166° South 140 161 3,200 -240 Descending Miami Center
06:46PM 24.6198 -81.7640 176° South  Level FlightAware Approximate
06:47PM 24.5845 -81.7615 176° South  Level Estimated
06:48PM 24.5492 -81.7591 85° East  Level Estimated
06:49PM 24.5500 -81.7500 305° West  Level FlightAware Approximate
06:50PM 24.5703 -81.7818 125° Southeast  Level Estimated
06:51PM 24.5500 -81.7500 125° Southeast  Level FlightAware Approximate